sensor_id;sensor_type;location;lat;lon;timestamp;temperature;humidity
50690;DHT22;54375;48.298;11.238;2023-06-14T00:10:44;9.40;87.40
50690;DHT22;54375;48.298;11.238;2023-06-14T00:25:49;9.20;88.70
50690;DHT22;54375;48.298;11.238;2023-06-14T00:40:52;9.00;89.80
50690;DHT22;54375;48.298;11.238;2023-06-14T00:55:55;8.80;90.50
50690;DHT22;54375;48.298;11.238;2023-06-14T01:11:04;8.70;91.00
50690;DHT22;54375;48.298;11.238;2023-06-14T01:26:09;8.40;91.30
50690;DHT22;54375;48.298;11.238;2023-06-14T01:41:20;8.30;91.70
50690;DHT22;54375;48.298;11.238;2023-06-14T01:56:27;8.10;92.00
50690;DHT22;54375;48.298;11.238;2023-06-14T02:11:30;7.90;92.30
50690;DHT22;54375;48.298;11.238;2023-06-14T02:26:36;7.70;93.00
50690;DHT22;54375;48.298;11.238;2023-06-14T02:41:43;7.60;93.10
50690;DHT22;54375;48.298;11.238;2023-06-14T02:56:50;7.50;93.40
50690;DHT22;54375;48.298;11.238;2023-06-14T03:11:55;7.50;93.70
50690;DHT22;54375;48.298;11.238;2023-06-14T03:27:04;7.20;93.80
50690;DHT22;54375;48.298;11.238;2023-06-14T03:42:15;7.10;94.30
50690;DHT22;54375;48.298;11.238;2023-06-14T03:57:19;7.10;94.70
50690;DHT22;54375;48.298;11.238;2023-06-14T04:12:22;7.30;94.80
50690;DHT22;54375;48.298;11.238;2023-06-14T04:27:27;7.40;94.80
50690;DHT22;54375;48.298;11.238;2023-06-14T04:42:32;7.80;94.90
50690;DHT22;54375;48.298;11.238;2023-06-14T04:57:36;8.30;94.80
50690;DHT22;54375;48.298;11.238;2023-06-14T05:12:40;8.90;94.80
50690;DHT22;54375;48.298;11.238;2023-06-14T05:27:42;9.60;93.80
50690;DHT22;54375;48.298;11.238;2023-06-14T05:42:45;10.80;91.80
50690;DHT22;54375;48.298;11.238;2023-06-14T05:57:49;12.00;90.30
50690;DHT22;54375;48.298;11.238;2023-06-14T06:12:52;13.30;86.20
50690;DHT22;54375;48.298;11.238;2023-06-14T06:27:57;14.70;80.40
50690;DHT22;54375;48.298;11.238;2023-06-14T06:43:02;16.30;73.50
50690;DHT22;54375;48.298;11.238;2023-06-14T06:58:05;17.70;67.60
50690;DHT22;54375;48.298;11.238;2023-06-14T07:13:09;18.90;63.80
50690;DHT22;54375;48.298;11.238;2023-06-14T07:28:12;19.90;59.20
50690;DHT22;54375;48.298;11.238;2023-06-14T07:43:18;20.50;56.40
50690;DHT22;54375;48.298;11.238;2023-06-14T07:58:23;21.40;51.90
50690;DHT22;54375;48.298;11.238;2023-06-14T08:13:26;22.40;49.10
50690;DHT22;54375;48.298;11.238;2023-06-14T08:28:31;23.00;45.10
50690;DHT22;54375;48.298;11.238;2023-06-14T08:43:34;23.30;44.10
50690;DHT22;54375;48.298;11.238;2023-06-14T08:58:37;24.10;41.40
50690;DHT22;54375;48.298;11.238;2023-06-14T09:13:41;24.80;39.10
50690;DHT22;54375;48.298;11.238;2023-06-14T09:28:53;25.40;40.40
50690;DHT22;54375;48.298;11.238;2023-06-14T09:43:57;25.50;38.90
50690;DHT22;54375;48.298;11.238;2023-06-14T09:59:05;25.80;38.80
50690;DHT22;54375;48.298;11.238;2023-06-14T10:14:08;26.00;36.90
50690;DHT22;54375;48.298;11.238;2023-06-14T10:29:11;26.50;37.00
50690;DHT22;54375;48.298;11.238;2023-06-14T10:44:50;26.60;35.70
50690;DHT22;54375;48.298;11.238;2023-06-14T10:59:55;27.20;33.30
50690;DHT22;54375;48.298;11.238;2023-06-14T11:14:58;27.50;33.40
50690;DHT22;54375;48.298;11.238;2023-06-14T11:30:06;27.30;33.60
50690;DHT22;54375;48.298;11.238;2023-06-14T11:45:11;27.80;31.30
50690;DHT22;54375;48.298;11.238;2023-06-14T12:00:14;27.70;33.50
50690;DHT22;54375;48.298;11.238;2023-06-14T12:15:18;29.30;31.70
50690;DHT22;54375;48.298;11.238;2023-06-14T12:30:21;29.10;31.30
50690;DHT22;54375;48.298;11.238;2023-06-14T12:45:24;27.10;33.20
50690;DHT22;54375;48.298;11.238;2023-06-14T13:00:27;29.20;31.60
50690;DHT22;54375;48.298;11.238;2023-06-14T13:15:32;28.80;32.90
50690;DHT22;54375;48.298;11.238;2023-06-14T13:30:37;25.50;36.00
50690;DHT22;54375;48.298;11.238;2023-06-14T13:45:41;28.70;34.10
50690;DHT22;54375;48.298;11.238;2023-06-14T14:00:45;27.10;33.70
50690;DHT22;54375;48.298;11.238;2023-06-14T14:15:48;26.90;33.30
50690;DHT22;54375;48.298;11.238;2023-06-14T14:30:52;29.40;31.80
50690;DHT22;54375;48.298;11.238;2023-06-14T14:46:01;27.00;34.70
50690;DHT22;54375;48.298;11.238;2023-06-14T15:01:05;27.30;34.20
50690;DHT22;54375;48.298;11.238;2023-06-14T15:16:09;30.40;30.70
50690;DHT22;54375;48.298;11.238;2023-06-14T15:31:12;29.60;31.50
50690;DHT22;54375;48.298;11.238;2023-06-14T15:46:15;25.10;36.30
50690;DHT22;54375;48.298;11.238;2023-06-14T16:01:19;24.10;37.30
50690;DHT22;54375;48.298;11.238;2023-06-14T16:16:22;24.20;38.30
50690;DHT22;54375;48.298;11.238;2023-06-14T16:31:25;24.40;37.70
50690;DHT22;54375;48.298;11.238;2023-06-14T16:46:31;25.10;37.70
50690;DHT22;54375;48.298;11.238;2023-06-14T17:01:35;24.30;38.90
50690;DHT22;54375;48.298;11.238;2023-06-14T17:16:39;23.70;40.10
50690;DHT22;54375;48.298;11.238;2023-06-14T17:31:42;23.80;40.00
50690;DHT22;54375;48.298;11.238;2023-06-14T17:46:47;24.80;39.70
50690;DHT22;54375;48.298;11.238;2023-06-14T18:01:50;25.00;40.00
50690;DHT22;54375;48.298;11.238;2023-06-14T18:16:53;24.70;39.90
50690;DHT22;54375;48.298;11.238;2023-06-14T18:31:56;23.80;41.60
50690;DHT22;54375;48.298;11.238;2023-06-14T18:46:59;22.60;43.60
50690;DHT22;54375;48.298;11.238;2023-06-14T19:02:02;21.60;45.80
50690;DHT22;54375;48.298;11.238;2023-06-14T19:17:06;20.70;47.60
50690;DHT22;54375;48.298;11.238;2023-06-14T19:32:09;19.80;50.30
50690;DHT22;54375;48.298;11.238;2023-06-14T19:47:11;19.10;52.00
50690;DHT22;54375;48.298;11.238;2023-06-14T20:02:14;18.40;53.40
50690;DHT22;54375;48.298;11.238;2023-06-14T20:17:18;17.90;56.30
50690;DHT22;54375;48.298;11.238;2023-06-14T20:32:23;17.20;58.90
50690;DHT22;54375;48.298;11.238;2023-06-14T20:47:27;16.50;61.60
50690;DHT22;54375;48.298;11.238;2023-06-14T21:02:29;15.90;64.40
50690;DHT22;54375;48.298;11.238;2023-06-14T21:17:32;15.40;67.00
50690;DHT22;54375;48.298;11.238;2023-06-14T21:32:36;15.10;69.20
50690;DHT22;54375;48.298;11.238;2023-06-14T21:47:39;14.90;70.20
50690;DHT22;54375;48.298;11.238;2023-06-14T22:02:42;14.80;71.60
50690;DHT22;54375;48.298;11.238;2023-06-14T22:17:45;14.60;73.40
50690;DHT22;54375;48.298;11.238;2023-06-14T22:32:48;14.20;75.20
50690;DHT22;54375;48.298;11.238;2023-06-14T22:47:51;13.80;78.30
50690;DHT22;54375;48.298;11.238;2023-06-14T23:02:54;13.40;79.90
50690;DHT22;54375;48.298;11.238;2023-06-14T23:17:58;13.10;83.00
50690;DHT22;54375;48.298;11.238;2023-06-14T23:33:01;12.80;84.90
50690;DHT22;54375;48.298;11.238;2023-06-14T23:48:05;12.50;86.30
